Terminal Aerodrome Forecast
Issued by NWS

Home | Current Version | Previous Version | Text Only | Print | Product List | Glossary On
Versions: 1 2 3 4 5 6 7 8 9 10 11 12 13 14 15 16 17 18 19 20 21 22 23 24 25 26 27 28 29
000
FTUS42 KCAE 251100
TAFDNL
TAF
KDNL 251134Z 2512/2612 VRB04KT P6SM -RA SCT050 OVC100
     FM251400 19008KT 4SM -SHRA BR SCT007 OVC035 WS020/22030KT
      TEMPO 2514/2517 1SM -TSRA BR OVC020CB
     FM252000 21010KT P6SM VCSH BKN015
     FM260000 26008KT P6SM FEW040 BKN100=

USA.gov is the U.S. government's official web portal to all federal, state and local government web resources and services.